LXJ230 KSFB-KJAX
Flight info
| Callsign | LXJ230 |
|---|---|
| Flight time | 0h 29m |
| Altitude | 20000 |
| Route | WORMS GUANO MEAAT QUEBEN2 |
| Aircraft | C25C/M-BGS/L |
Departure
| Time | 2026-04-26 01:04 |
|---|---|
| Airport | Orlando Sanford International Airport (KSFB) |
Arrival
| Time | 2026-04-26 01:33 |
|---|---|
| Airport | Jacksonville International Airport (KJAX) |
| Time | Latitude | Longitude | Altitude | Speed | Heading |
|---|---|---|---|---|---|
| 2026-04-26 00:54 | 28.77534 | -81.24762 | 57 ft | 0 kts | 56° |
| 2026-04-26 01:01 | 28.77556 | -81.24745 | 57 ft | 13 kts | 9° |
| 2026-04-26 01:01 | 28.77715 | -81.24734 | 55 ft | 26 kts | 354° |
| 2026-04-26 01:02 | 28.77861 | -81.24850 | 50 ft | 26 kts | 313° |
| 2026-04-26 01:02 | 28.77988 | -81.24999 | 48 ft | 26 kts | 314° |
| 2026-04-26 01:02 | 28.78065 | -81.25175 | 48 ft | 25 kts | 268° |
| 2026-04-26 01:02 | 28.78066 | -81.25367 | 50 ft | 23 kts | 270° |
| 2026-04-26 01:03 | 28.78067 | -81.25541 | 52 ft | 20 kts | 283° |
| 2026-04-26 01:03 | 28.78173 | -81.25564 | 51 ft | 17 kts | 46° |
| 2026-04-26 01:03 | 28.78175 | -81.25396 | 49 ft | 43 kts | 89° |
| 2026-04-26 01:03 | 28.78172 | -81.24657 | 123 ft | 136 kts | 90° |
| 2026-04-26 01:04 | 28.78192 | -81.23375 | 642 ft | 189 kts | 88° |
| 2026-04-26 01:04 | 28.78545 | -81.21823 | 1422 ft | 219 kts | 73° |
| 2026-04-26 01:04 | 28.79081 | -81.20072 | 2182 ft | 246 kts | 73° |
| 2026-04-26 01:04 | 28.79711 | -81.18165 | 3063 ft | 262 kts | 62° |
| 2026-04-26 01:05 | 28.80902 | -81.16685 | 4492 ft | 251 kts | 30° |
| 2026-04-26 01:05 | 28.82543 | -81.16162 | 5768 ft | 247 kts | 358° |
| 2026-04-26 01:05 | 28.84219 | -81.16693 | 6926 ft | 257 kts | 328° |
| 2026-04-26 01:05 | 28.85624 | -81.18022 | 8161 ft | 265 kts | 310° |
| 2026-04-26 01:06 | 28.86755 | -81.19587 | 9819 ft | 255 kts | 307° |
| 2026-04-26 01:06 | 28.87867 | -81.21234 | 10594 ft | 268 kts | 305° |
| 2026-04-26 01:06 | 28.88952 | -81.23035 | 11257 ft | 281 kts | 303° |
| 2026-04-26 01:06 | 28.90099 | -81.24877 | 12089 ft | 285 kts | 305° |
| 2026-04-26 01:07 | 28.91306 | -81.26635 | 13287 ft | 276 kts | 313° |
| 2026-04-26 01:07 | 28.92659 | -81.28138 | 14395 ft | 270 kts | 315° |
| 2026-04-26 01:07 | 28.93985 | -81.29629 | 15442 ft | 260 kts | 314° |
| 2026-04-26 01:07 | 28.95280 | -81.31104 | 16306 ft | 264 kts | 313° |
| 2026-04-26 01:08 | 28.96100 | -81.32129 | 16893 ft | 264 kts | 310° |
| 2026-04-26 01:08 | 28.97351 | -81.33662 | 17825 ft | 263 kts | 314° |
| 2026-04-26 01:08 | 28.99099 | -81.35561 | 18957 ft | 260 kts | 315° |
| 2026-04-26 01:08 | 29.00424 | -81.37011 | 19569 ft | 268 kts | 320° |
| 2026-04-26 01:09 | 29.02136 | -81.37999 | 19926 ft | 290 kts | 340° |
| 2026-04-26 01:09 | 29.03528 | -81.38273 | 19949 ft | 312 kts | 352° |
| 2026-04-26 01:09 | 29.05758 | -81.38478 | 19967 ft | 338 kts | 352° |
| 2026-04-26 01:09 | 29.08191 | -81.38692 | 19965 ft | 362 kts | 353° |
| 2026-04-26 01:10 | 29.10731 | -81.39057 | 19963 ft | 371 kts | 343° |
| 2026-04-26 01:10 | 29.14052 | -81.40165 | 19956 ft | 379 kts | 343° |
| 2026-04-26 01:10 | 29.15779 | -81.40663 | 19954 ft | 380 kts | 343° |
| 2026-04-26 01:10 | 29.18335 | -81.41434 | 19950 ft | 380 kts | 343° |
| 2026-04-26 01:11 | 29.20895 | -81.42230 | 19947 ft | 381 kts | 342° |
| 2026-04-26 01:11 | 29.23453 | -81.43037 | 19935 ft | 382 kts | 343° |
| 2026-04-26 01:11 | 29.26021 | -81.43823 | 19938 ft | 382 kts | 343° |
| 2026-04-26 01:11 | 29.28552 | -81.44623 | 19933 ft | 382 kts | 342° |
| 2026-04-26 01:12 | 29.31115 | -81.45455 | 19916 ft | 383 kts | 342° |
| 2026-04-26 01:12 | 29.33682 | -81.46264 | 19908 ft | 383 kts | 347° |
| 2026-04-26 01:12 | 29.36308 | -81.46140 | 19706 ft | 380 kts | 11° |
| 2026-04-26 01:12 | 29.38777 | -81.45117 | 19375 ft | 373 kts | 20° |
| 2026-04-26 01:13 | 29.41135 | -81.43947 | 19052 ft | 366 kts | 20° |
| 2026-04-26 01:13 | 29.43470 | -81.42855 | 18728 ft | 357 kts | 17° |
| 2026-04-26 01:13 | 29.45817 | -81.42058 | 18404 ft | 347 kts | 9° |
| 2026-04-26 01:13 | 29.48175 | -81.41667 | 18065 ft | 339 kts | 4° |
| 2026-04-26 01:14 | 29.50477 | -81.41375 | 17698 ft | 334 kts | 4° |
| 2026-04-26 01:14 | 29.52777 | -81.40960 | 17331 ft | 335 kts | 8° |
| 2026-04-26 01:14 | 29.55073 | -81.40586 | 16966 ft | 333 kts | 356° |
| 2026-04-26 01:14 | 29.57334 | -81.41104 | 16608 ft | 331 kts | 340° |
| 2026-04-26 01:15 | 29.59436 | -81.42205 | 16253 ft | 334 kts | 327° |
| 2026-04-26 01:15 | 29.61287 | -81.43846 | 15911 ft | 338 kts | 315° |
| 2026-04-26 01:15 | 29.62792 | -81.45935 | 15572 ft | 341 kts | 303° |
| 2026-04-26 01:15 | 29.63995 | -81.48305 | 15240 ft | 344 kts | 299° |
| 2026-04-26 01:16 | 29.65216 | -81.50682 | 14909 ft | 346 kts | 301° |
| 2026-04-26 01:16 | 29.66560 | -81.52945 | 14586 ft | 347 kts | 307° |
| 2026-04-26 01:16 | 29.68205 | -81.54986 | 14257 ft | 348 kts | 315° |
| 2026-04-26 01:16 | 29.69949 | -81.56898 | 13840 ft | 337 kts | 314° |
| 2026-04-26 01:17 | 29.71524 | -81.58727 | 13698 ft | 309 kts | 313° |
| 2026-04-26 01:17 | 29.72998 | -81.60455 | 13436 ft | 301 kts | 313° |
| 2026-04-26 01:17 | 29.74468 | -81.62158 | 13215 ft | 296 kts | 313° |
| 2026-04-26 01:17 | 29.75948 | -81.63812 | 13009 ft | 301 kts | 319° |
| 2026-04-26 01:18 | 29.77777 | -81.64990 | 13033 ft | 304 kts | 338° |
| 2026-04-26 01:18 | 29.79853 | -81.65436 | 13073 ft | 305 kts | 355° |
| 2026-04-26 01:18 | 29.81984 | -81.65457 | 13033 ft | 307 kts | 356° |
| 2026-04-26 01:18 | 29.84108 | -81.65538 | 13024 ft | 311 kts | 354° |
| 2026-04-26 01:19 | 29.86295 | -81.65689 | 13030 ft | 317 kts | 353° |
| 2026-04-26 01:19 | 29.88512 | -81.65974 | 12969 ft | 322 kts | 346° |
| 2026-04-26 01:19 | 29.90631 | -81.66821 | 12736 ft | 321 kts | 330° |
| 2026-04-26 01:19 | 29.92537 | -81.68153 | 12459 ft | 320 kts | 323° |
| 2026-04-26 01:20 | 29.94369 | -81.69618 | 12210 ft | 320 kts | 322° |
| 2026-04-26 01:20 | 29.96186 | -81.71109 | 11938 ft | 321 kts | 321° |
| 2026-04-26 01:20 | 29.97997 | -81.72631 | 11604 ft | 322 kts | 321° |
| 2026-04-26 01:20 | 29.99801 | -81.74143 | 11308 ft | 319 kts | 321° |
| 2026-04-26 01:21 | 30.01580 | -81.75604 | 10973 ft | 317 kts | 322° |
| 2026-04-26 01:21 | 30.03404 | -81.77033 | 10638 ft | 316 kts | 323° |
| 2026-04-26 01:21 | 30.05221 | -81.78454 | 10306 ft | 315 kts | 323° |
| 2026-04-26 01:21 | 30.07037 | -81.79855 | 9979 ft | 314 kts | 323° |
| 2026-04-26 01:22 | 30.08849 | -81.81255 | 9645 ft | 313 kts | 323° |
| 2026-04-26 01:22 | 30.10663 | -81.82645 | 9279 ft | 313 kts | 323° |
| 2026-04-26 01:22 | 30.12448 | -81.84054 | 8937 ft | 307 kts | 322° |
| 2026-04-26 01:22 | 30.14148 | -81.85463 | 8642 ft | 295 kts | 321° |
| 2026-04-26 01:23 | 30.15832 | -81.86727 | 8321 ft | 289 kts | 329° |
| 2026-04-26 01:23 | 30.17689 | -81.87582 | 8079 ft | 286 kts | 341° |
| 2026-04-26 01:23 | 30.19598 | -81.88165 | 7815 ft | 283 kts | 342° |
| 2026-04-26 01:23 | 30.21493 | -81.88727 | 7595 ft | 279 kts | 342° |
| 2026-04-26 01:24 | 30.23364 | -81.89291 | 7331 ft | 277 kts | 343° |
| 2026-04-26 01:24 | 30.25236 | -81.89837 | 7086 ft | 277 kts | 343° |
| 2026-04-26 01:24 | 30.27105 | -81.90367 | 6814 ft | 276 kts | 343° |
| 2026-04-26 01:24 | 30.28960 | -81.90913 | 6598 ft | 273 kts | 343° |
| 2026-04-26 01:25 | 30.30796 | -81.91477 | 6307 ft | 272 kts | 342° |
| 2026-04-26 01:25 | 30.32605 | -81.92053 | 6063 ft | 266 kts | 342° |
| 2026-04-26 01:25 | 30.34374 | -81.92630 | 5835 ft | 262 kts | 342° |
| 2026-04-26 01:25 | 30.36117 | -81.93209 | 5581 ft | 259 kts | 341° |
| 2026-04-26 01:26 | 30.37853 | -81.93769 | 5271 ft | 259 kts | 342° |
| 2026-04-26 01:26 | 30.39592 | -81.94324 | 4984 ft | 259 kts | 342° |
| 2026-04-26 01:26 | 30.41307 | -81.94873 | 4744 ft | 257 kts | 342° |
| 2026-04-26 01:26 | 30.43035 | -81.95394 | 4449 ft | 257 kts | 348° |
| 2026-04-26 01:27 | 30.44831 | -81.95411 | 4164 ft | 260 kts | 7° |
| 2026-04-26 01:27 | 30.46543 | -81.94776 | 3899 ft | 258 kts | 24° |
| 2026-04-26 01:27 | 30.48077 | -81.93735 | 3737 ft | 252 kts | 32° |
| 2026-04-26 01:27 | 30.49415 | -81.92432 | 3489 ft | 251 kts | 47° |
| 2026-04-26 01:28 | 30.50350 | -81.90727 | 3229 ft | 249 kts | 67° |
| 2026-04-26 01:28 | 30.50761 | -81.88858 | 3042 ft | 233 kts | 86° |
| 2026-04-26 01:28 | 30.50647 | -81.87051 | 2769 ft | 224 kts | 105° |
| 2026-04-26 01:28 | 30.50172 | -81.85402 | 2577 ft | 204 kts | 114° |
| 2026-04-26 01:29 | 30.49676 | -81.83951 | 2402 ft | 186 kts | 115° |
| 2026-04-26 01:29 | 30.49240 | -81.82593 | 2133 ft | 169 kts | 114° |
| 2026-04-26 01:29 | 30.48903 | -81.81400 | 1883 ft | 144 kts | 111° |
| 2026-04-26 01:29 | 30.48655 | -81.80316 | 1677 ft | 135 kts | 107° |
| 2026-04-26 01:30 | 30.48493 | -81.79252 | 1547 ft | 131 kts | 103° |
| 2026-04-26 01:30 | 30.48399 | -81.78233 | 1454 ft | 124 kts | 98° |
| 2026-04-26 01:30 | 30.48345 | -81.77237 | 1392 ft | 124 kts | 97° |
| 2026-04-26 01:30 | 30.48320 | -81.76243 | 1329 ft | 124 kts | 94° |
| 2026-04-26 01:31 | 30.48346 | -81.75230 | 1222 ft | 125 kts | 90° |
| 2026-04-26 01:31 | 30.48476 | -81.74253 | 1073 ft | 120 kts | 81° |
| 2026-04-26 01:31 | 30.48669 | -81.73342 | 849 ft | 118 kts | 78° |
| 2026-04-26 01:31 | 30.48896 | -81.72453 | 673 ft | 112 kts | 76° |
| 2026-04-26 01:32 | 30.49140 | -81.71589 | 431 ft | 115 kts | 74° |
| 2026-04-26 01:32 | 30.49402 | -81.70726 | 229 ft | 112 kts | 72° |
| 2026-04-26 01:32 | 30.49654 | -81.69897 | 37 ft | 107 kts | 74° |
| 2026-04-26 01:32 | 30.49869 | -81.69184 | 33 ft | 82 kts | 69° |
| 2026-04-26 01:33 | 30.50041 | -81.68633 | 31 ft | 65 kts | 72° |
| 2026-04-26 01:33 | 30.50184 | -81.68153 | 33 ft | 55 kts | 78° |
| 2026-04-26 01:33 | 30.49974 | -81.67953 | 30 ft | 41 kts | 160° |
| 2026-04-26 01:33 | 30.49725 | -81.67912 | 30 ft | 32 kts | 186° |
| 2026-04-26 01:34 | 30.49679 | -81.67815 | 31 ft | 13 kts | 351° |